createdAt,value
2018-07-26T00:01:34.053Z,65.71
2018-07-26T00:04:03.059Z,65.86
2018-07-26T00:06:31.946Z,65.58
2018-07-26T00:09:00.649Z,64.64
2018-07-26T00:11:29.466Z,64.74
2018-07-26T00:13:58.223Z,64.75
2018-07-26T00:16:27.095Z,65.16
2018-07-26T00:18:55.896Z,64.60
2018-07-26T00:21:24.820Z,64.46
2018-07-26T00:23:53.645Z,63.96
2018-07-26T00:26:22.658Z,63.52
2018-07-26T00:28:51.519Z,63.39
2018-07-26T00:31:20.317Z,63.60
2018-07-26T00:33:49.231Z,64.16
2018-07-26T00:36:18.146Z,64.33
2018-07-26T00:38:46.901Z,64.28
2018-07-26T00:41:15.812Z,63.79
2018-07-26T00:43:44.912Z,64.10
2018-07-26T00:46:13.747Z,64.31
2018-07-26T00:48:42.667Z,63.78
2018-07-26T00:51:11.419Z,63.88
2018-07-26T00:53:40.199Z,63.21
2018-07-26T00:56:09.133Z,62.85
2018-07-26T00:58:37.783Z,63.13
2018-07-26T01:01:06.536Z,63.29
2018-07-26T01:03:35.441Z,63.24
2018-07-26T01:06:04.379Z,62.98
2018-07-26T01:08:33.125Z,62.93
2018-07-26T01:11:02.031Z,62.92
2018-07-26T01:13:31.153Z,62.76
2018-07-26T01:16:00.388Z,62.74
2018-07-26T01:18:29.145Z,62.58
2018-07-26T01:20:57.968Z,62.93
2018-07-26T01:23:26.889Z,63.62
2018-07-26T01:25:55.781Z,63.58
2018-07-26T01:28:24.580Z,63.60
2018-07-26T01:30:53.393Z,63.75
2018-07-26T01:33:22.189Z,63.52
2018-07-26T01:35:51.045Z,63.28
2018-07-26T01:38:19.834Z,63.24
2018-07-26T01:40:48.589Z,62.32
2018-07-26T01:43:56.804Z,62.08
2018-07-26T01:46:26.680Z,62.64
2018-07-26T01:48:55.615Z,63.01
2018-07-26T01:51:24.511Z,63.43
2018-07-26T01:53:53.156Z,63.96
2018-07-26T01:56:21.865Z,64.51
2018-07-26T01:58:50.687Z,65.23
2018-07-26T02:01:19.604Z,65.73
2018-07-26T02:03:48.342Z,66.54
2018-07-26T02:06:17.539Z,66.75
2018-07-26T02:08:46.342Z,67.28
2018-07-26T02:11:15.136Z,67.29
2018-07-26T02:13:43.983Z,67.08
2018-07-26T02:16:12.890Z,67.50
2018-07-26T02:18:42.057Z,67.51
2018-07-26T02:21:10.853Z,67.44
2018-07-26T02:23:40.221Z,67.80
2018-07-26T02:26:09.406Z,68.01
2018-07-26T02:28:38.320Z,68.04
2018-07-26T02:31:07.665Z,68.50
2018-07-26T02:33:36.782Z,68.66
2018-07-26T02:36:05.662Z,68.32
2018-07-26T02:38:34.372Z,68.85
2018-07-26T02:41:03.139Z,68.25
2018-07-26T02:43:32.074Z,68.07
2018-07-26T02:46:01.021Z,67.87
2018-07-26T02:48:29.839Z,67.79
2018-07-26T02:50:58.716Z,67.83
2018-07-26T02:53:27.719Z,67.12
2018-07-26T02:55:57.650Z,66.65
2018-07-26T02:58:26.587Z,66.21
2018-07-26T03:00:55.413Z,66.67
2018-07-26T03:03:24.177Z,66.87
2018-07-26T03:05:53.178Z,68.29
2018-07-26T03:08:22.166Z,68.42
2018-07-26T03:10:50.976Z,68.57
2018-07-26T03:13:19.741Z,67.93
2018-07-26T03:15:48.859Z,67.70
2018-07-26T03:18:17.645Z,67.58
2018-07-26T03:20:46.570Z,67.80
2018-07-26T03:23:15.522Z,68.00
2018-07-26T03:25:44.609Z,68.41
2018-07-26T03:28:13.836Z,68.54
2018-07-26T03:30:42.712Z,68.84
2018-07-26T03:33:11.494Z,69.39
2018-07-26T03:35:40.489Z,69.51
2018-07-26T03:38:09.311Z,70.55
2018-07-26T03:40:38.143Z,70.36
2018-07-26T03:43:06.832Z,70.32
2018-07-26T03:45:35.750Z,70.32
2018-07-26T03:48:04.566Z,70.56
2018-07-26T03:50:33.436Z,70.60
2018-07-26T03:53:02.251Z,70.38
2018-07-26T03:55:31.029Z,70.95
2018-07-26T03:57:59.817Z,70.37
2018-07-26T04:00:28.851Z,70.36
2018-07-26T04:02:57.668Z,71.17
2018-07-26T04:05:26.483Z,70.92
2018-07-26T04:07:55.481Z,70.86
2018-07-26T04:10:24.472Z,70.95
2018-07-26T04:12:53.717Z,71.30
2018-07-26T04:15:22.525Z,71.01
2018-07-26T04:17:56.356Z,70.75
2018-07-26T04:20:25.346Z,70.62
2018-07-26T04:22:54.360Z,70.75
2018-07-26T04:25:23.741Z,70.68
2018-07-26T04:27:52.885Z,70.61
2018-07-26T04:30:21.706Z,70.10
2018-07-26T04:32:50.609Z,70.08
2018-07-26T04:35:19.772Z,69.31
2018-07-26T04:37:48.487Z,69.26
2018-07-26T04:40:17.545Z,69.45
2018-07-26T04:42:46.427Z,69.43
2018-07-26T04:45:15.451Z,69.19
2018-07-26T04:47:44.434Z,69.71
2018-07-26T04:50:14.060Z,69.26
2018-07-26T04:52:43.424Z,69.04
2018-07-26T04:55:12.227Z,69.16
2018-07-26T04:57:41.067Z,68.98
2018-07-26T05:00:10.081Z,67.81
2018-07-26T05:02:39.133Z,67.64
2018-07-26T05:05:08.766Z,66.51
2018-07-26T05:07:37.942Z,67.35
2018-07-26T05:10:07.020Z,67.11
2018-07-26T05:12:36.366Z,67.29
2018-07-26T05:15:06.924Z,67.01
2018-07-26T05:17:35.681Z,64.91
2018-07-26T05:20:05.422Z,65.02
2018-07-26T05:22:34.226Z,64.34
2018-07-26T05:25:03.276Z,62.86
2018-07-26T05:27:32.350Z,63.56
2018-07-26T05:30:01.192Z,62.68
2018-07-26T05:32:30.228Z,59.92
2018-07-26T05:34:59.449Z,59.49
2018-07-26T05:37:28.566Z,59.57
2018-07-26T05:39:57.391Z,58.97
2018-07-26T05:42:26.464Z,58.83
2018-07-26T05:44:56.079Z,58.83
2018-07-26T05:47:25.266Z,59.02
2018-07-26T05:49:54.384Z,58.01
2018-07-26T05:52:23.157Z,58.15
2018-07-26T05:54:52.050Z,58.43
2018-07-26T05:57:20.945Z,58.05
2018-07-26T05:59:49.759Z,57.99
2018-07-26T06:02:18.645Z,58.18
2018-07-26T06:04:47.577Z,57.97
2018-07-26T06:07:16.532Z,57.53
2018-07-26T06:09:45.568Z,56.48
2018-07-26T06:12:14.489Z,56.71
2018-07-26T06:14:43.275Z,56.69
2018-07-26T06:17:12.068Z,56.39
2018-07-26T06:19:40.873Z,56.16
2018-07-26T06:22:09.708Z,55.80
2018-07-26T06:24:38.683Z,55.58
2018-07-26T06:27:07.661Z,55.63
2018-07-26T06:29:36.413Z,55.31
2018-07-26T06:32:05.388Z,55.13
2018-07-26T06:34:34.616Z,55.05
2018-07-26T06:37:03.568Z,54.40
2018-07-26T06:39:32.633Z,54.25
2018-07-26T06:42:01.547Z,54.76
2018-07-26T06:44:30.370Z,53.97
2018-07-26T06:46:59.436Z,53.50
2018-07-26T06:49:28.369Z,53.17
2018-07-26T06:51:57.234Z,52.73
2018-07-26T06:54:26.036Z,52.41
2018-07-26T06:56:54.797Z,52.34
2018-07-26T06:59:23.649Z,52.73
2018-07-26T07:01:52.542Z,52.23
2018-07-26T07:04:21.727Z,51.18
2018-07-26T07:06:50.507Z,51.40
2018-07-26T07:09:19.431Z,51.11
2018-07-26T07:11:48.269Z,51.76
2018-07-26T07:14:17.387Z,51.24
2018-07-26T07:16:46.158Z,51.04
2018-07-26T07:19:15.058Z,50.65
2018-07-26T07:21:43.833Z,50.42
2018-07-26T07:24:16.912Z,50.31
2018-07-26T07:26:45.862Z,49.95
2018-07-26T07:29:14.590Z,49.94
2018-07-26T07:31:43.475Z,49.85
2018-07-26T07:34:12.280Z,49.70
2018-07-26T07:36:41.185Z,49.59
2018-07-26T07:39:12.012Z,48.96
2018-07-26T07:41:41.280Z,49.15
2018-07-26T07:44:10.493Z,48.85
2018-07-26T07:46:40.287Z,48.46
2018-07-26T07:49:08.918Z,48.69
2018-07-26T07:51:37.743Z,48.33
2018-07-26T07:54:06.586Z,47.88
2018-07-26T07:56:35.390Z,47.76
2018-07-26T07:59:04.452Z,47.55
2018-07-26T08:01:33.371Z,47.26
2018-07-26T08:04:02.300Z,46.71
2018-07-26T08:06:31.247Z,46.74
2018-07-26T08:09:00.117Z,47.63
2018-07-26T08:11:28.962Z,46.57
2018-07-26T08:13:58.053Z,46.70
2018-07-26T08:16:26.978Z,45.93
2018-07-26T08:18:55.835Z,46.86
2018-07-26T08:21:25.012Z,45.42
2018-07-26T08:23:53.902Z,45.24
2018-07-26T08:26:22.854Z,46.02
2018-07-26T08:28:51.713Z,45.19
2018-07-26T08:31:20.494Z,44.24
2018-07-26T08:33:49.257Z,44.84
2018-07-26T08:36:18.478Z,43.40
2018-07-26T08:38:47.370Z,43.44
2018-07-26T08:41:16.142Z,43.07
2018-07-26T08:43:44.971Z,43.53
2018-07-26T08:46:13.718Z,42.26
2018-07-26T08:48:42.652Z,43.73
2018-07-26T08:51:11.525Z,42.46
2018-07-26T08:53:40.501Z,41.72
2018-07-26T08:56:09.401Z,42.21
2018-07-26T08:58:38.245Z,41.50
2018-07-26T09:01:07.003Z,40.69
2018-07-26T09:03:36.185Z,40.36
2018-07-26T09:06:04.997Z,40.09
2018-07-26T09:08:33.733Z,42.03
2018-07-26T09:11:02.620Z,40.39
2018-07-26T09:13:31.495Z,41.73
2018-07-26T09:16:00.270Z,39.89
2018-07-26T09:18:29.131Z,39.54
2018-07-26T09:20:58.062Z,40.63
2018-07-26T09:23:27.209Z,39.03
2018-07-26T09:25:56.201Z,40.23
2018-07-26T09:28:25.127Z,39.43
2018-07-26T09:30:53.958Z,39.24
2018-07-26T09:33:23.213Z,39.25
2018-07-26T09:35:52.082Z,40.03
2018-07-26T09:38:20.913Z,38.34
2018-07-26T09:40:49.638Z,38.80
2018-07-26T09:43:18.794Z,39.79
2018-07-26T09:45:48.220Z,38.54
2018-07-26T09:48:17.287Z,38.91
2018-07-26T09:50:47.841Z,39.10
2018-07-26T09:53:17.006Z,38.78
2018-07-26T09:55:46.093Z,37.17
2018-07-26T09:58:15.089Z,37.69
2018-07-26T10:00:49.208Z,37.28
2018-07-26T10:03:18.106Z,38.09
2018-07-26T10:05:46.950Z,37.66
2018-07-26T10:08:15.747Z,37.09
2018-07-26T10:10:45.309Z,36.25
2018-07-26T10:13:14.055Z,35.39
2018-07-26T10:15:42.918Z,37.32
2018-07-26T10:18:11.912Z,35.88
2018-07-26T10:20:40.838Z,37.81
2018-07-26T10:23:09.805Z,35.92
2018-07-26T10:25:38.918Z,35.77
2018-07-26T10:28:08.134Z,35.39
2018-07-26T10:30:36.885Z,35.51
2018-07-26T10:33:05.799Z,35.23
2018-07-26T10:35:34.699Z,34.88
2018-07-26T10:38:03.705Z,35.29
2018-07-26T10:40:32.773Z,34.21
2018-07-26T10:43:01.618Z,34.85
2018-07-26T10:45:31.368Z,35.17
2018-07-26T10:48:00.042Z,35.31
2018-07-26T10:50:29.049Z,33.78
2018-07-26T10:52:57.829Z,35.25
2018-07-26T10:55:26.641Z,34.71
2018-07-26T10:57:55.858Z,33.97
2018-07-26T11:00:24.739Z,35.08
2018-07-26T11:02:53.519Z,34.37
2018-07-26T11:05:22.322Z,34.90
2018-07-26T11:07:51.026Z,33.68
2018-07-26T11:10:20.170Z,34.93
2018-07-26T11:12:49.360Z,33.58
2018-07-26T11:15:27.800Z,34.10
2018-07-26T11:17:56.943Z,31.84
2018-07-26T11:20:26.030Z,32.05
2018-07-26T11:22:54.952Z,31.06
2018-07-26T11:25:23.711Z,31.36
2018-07-26T11:27:53.166Z,32.53
2018-07-26T11:30:23.305Z,31.27
2018-07-26T11:32:52.216Z,28.98
2018-07-26T11:35:21.118Z,28.91
2018-07-26T11:37:50.028Z,29.90
2018-07-26T11:40:18.909Z,30.01
2018-07-26T11:42:48.286Z,30.10
2018-07-26T11:45:17.274Z,29.64
2018-07-26T11:47:46.372Z,30.14
2018-07-26T11:50:15.371Z,29.44
2018-07-26T11:52:44.198Z,29.68
2018-07-26T11:55:13.236Z,28.37
2018-07-26T11:57:42.187Z,28.61
2018-07-26T12:00:11.162Z,27.91
2018-07-26T12:02:40.051Z,28.26
2018-07-26T12:05:08.794Z,28.63
2018-07-26T12:07:37.722Z,29.91
2018-07-26T12:10:06.982Z,26.71
2018-07-26T12:12:35.794Z,26.87
2018-07-26T12:15:05.104Z,26.25
2018-07-26T12:17:34.058Z,25.75
2018-07-26T12:20:03.037Z,27.49
2018-07-26T12:22:31.840Z,27.24
2018-07-26T12:25:00.717Z,27.69
2018-07-26T12:27:29.784Z,26.32
2018-07-26T12:29:58.863Z,25.87
2018-07-26T12:32:27.665Z,26.28
2018-07-26T12:34:56.530Z,26.21
2018-07-26T12:37:25.327Z,26.85
2018-07-26T12:39:54.237Z,26.04
2018-07-26T12:42:23.139Z,24.74
2018-07-26T12:44:52.020Z,23.74
2018-07-26T12:47:20.985Z,21.45
2018-07-26T12:49:50.491Z,22.21
2018-07-26T12:52:20.846Z,21.70
2018-07-26T12:54:50.335Z,20.58
2018-07-26T12:57:19.418Z,20.77
2018-07-26T12:59:48.232Z,20.58
2018-07-26T13:02:17.017Z,20.58
2018-07-26T13:04:46.081Z,20.58
2018-07-26T13:07:14.981Z,20.79
2018-07-26T13:09:44.172Z,20.89
2018-07-26T13:12:13.224Z,21.46
2018-07-26T13:14:42.123Z,23.04
2018-07-26T13:17:10.940Z,21.46
2018-07-26T13:19:39.902Z,22.96
2018-07-26T13:22:08.635Z,22.01
2018-07-26T13:24:37.363Z,23.12
2018-07-26T13:27:07.013Z,24.44
2018-07-26T13:29:35.925Z,24.82
2018-07-26T13:32:04.923Z,24.84
2018-07-26T13:34:33.806Z,26.47
2018-07-26T13:37:02.538Z,26.17
2018-07-26T13:39:31.426Z,26.45
2018-07-26T13:42:00.606Z,25.96
2018-07-26T13:44:29.616Z,22.76
2018-07-26T13:46:58.494Z,21.44
2018-07-26T13:49:27.260Z,20.64
2018-07-26T13:51:56.170Z,19.49
2018-07-26T13:54:24.947Z,18.72
2018-07-26T13:56:53.769Z,17.56
2018-07-26T13:59:22.749Z,18.05
2018-07-26T14:01:51.822Z,17.51
2018-07-26T14:04:20.744Z,16.38
2018-07-26T14:06:49.649Z,16.20
2018-07-26T14:09:18.630Z,17.61
2018-07-26T14:11:47.477Z,18.59
2018-07-26T14:14:16.275Z,19.40
2018-07-26T14:16:45.329Z,20.11
2018-07-26T14:19:14.416Z,20.77
2018-07-26T14:21:43.269Z,21.15
2018-07-26T14:24:17.357Z,21.01
2018-07-26T14:26:46.557Z,21.75
2018-07-26T14:29:15.401Z,22.49
2018-07-26T14:31:44.572Z,22.25
2018-07-26T14:34:15.285Z,23.31
2018-07-26T14:36:45.114Z,23.82
2018-07-26T14:39:14.014Z,24.27
2018-07-26T14:41:43.152Z,23.91
2018-07-26T14:44:12.169Z,24.64
2018-07-26T14:46:40.967Z,24.50
2018-07-26T14:49:10.199Z,24.56
2018-07-26T14:51:39.169Z,24.54
2018-07-26T14:54:08.475Z,25.24
2018-07-26T14:56:37.811Z,25.20
2018-07-26T14:59:06.627Z,25.64
2018-07-26T15:01:35.505Z,26.21
2018-07-26T15:04:04.637Z,25.08
2018-07-26T15:06:33.453Z,25.56
2018-07-26T15:09:02.400Z,25.90
2018-07-26T15:11:31.280Z,25.16
2018-07-26T15:14:00.178Z,25.27
2018-07-26T15:16:29.019Z,25.23
2018-07-26T15:18:57.937Z,25.63
2018-07-26T15:21:26.759Z,26.03
2018-07-26T15:23:55.670Z,26.19
2018-07-26T15:26:24.406Z,26.46
2018-07-26T15:28:53.261Z,26.64
2018-07-26T15:31:22.027Z,27.56
2018-07-26T15:33:50.949Z,26.59
2018-07-26T15:36:19.701Z,25.88
2018-07-26T15:38:48.472Z,26.22
2018-07-26T15:41:17.298Z,26.33
2018-07-26T15:43:46.730Z,26.87
2018-07-26T15:46:15.429Z,26.02
2018-07-26T15:48:44.234Z,26.60
2018-07-26T15:51:13.048Z,27.16
2018-07-26T15:53:42.466Z,26.32
2018-07-26T15:56:11.658Z,27.05
2018-07-26T15:58:40.524Z,26.97
2018-07-26T16:01:09.508Z,26.85
2018-07-26T16:03:38.353Z,26.92
2018-07-26T16:06:07.252Z,25.69
2018-07-26T16:08:36.126Z,25.32
2018-07-26T16:11:05.154Z,25.58
2018-07-26T16:13:33.908Z,25.30
2018-07-26T16:16:02.821Z,24.62
2018-07-26T16:18:31.597Z,23.50
2018-07-26T16:21:00.507Z,23.25
2018-07-26T16:23:29.367Z,23.06
2018-07-26T16:25:58.364Z,23.54
2018-07-26T16:28:27.370Z,24.18
2018-07-26T16:30:56.396Z,24.49
2018-07-26T16:33:25.584Z,24.79
2018-07-26T16:35:54.561Z,24.35
2018-07-26T16:38:23.652Z,23.92
2018-07-26T16:40:52.903Z,25.04
2018-07-26T16:43:21.663Z,25.42
2018-07-26T16:45:50.538Z,25.83
2018-07-26T16:48:19.662Z,26.21
2018-07-26T16:50:48.469Z,26.61
2018-07-26T16:53:17.459Z,26.71
2018-07-26T16:55:46.344Z,27.04
2018-07-26T16:58:15.360Z,26.97
2018-07-26T17:00:44.854Z,27.24
2018-07-26T17:03:13.800Z,26.81
2018-07-26T17:05:42.825Z,27.04
2018-07-26T17:08:12.074Z,27.22
2018-07-26T17:10:40.920Z,28.04
2018-07-26T17:13:09.895Z,27.58
2018-07-26T17:15:38.704Z,28.25
2018-07-26T17:18:07.509Z,27.93
2018-07-26T17:20:36.343Z,27.37
2018-07-26T17:23:05.356Z,27.82
2018-07-26T17:25:34.456Z,27.71
2018-07-26T17:28:03.267Z,27.18
2018-07-26T17:30:31.972Z,27.56
2018-07-26T17:33:00.842Z,26.98
2018-07-26T17:35:29.813Z,27.54
2018-07-26T17:37:58.830Z,27.40
2018-07-26T17:40:27.649Z,27.84
2018-07-26T17:42:56.475Z,27.67
2018-07-26T17:45:25.426Z,27.46
2018-07-26T17:47:54.656Z,27.37
2018-07-26T17:50:23.483Z,27.39
2018-07-26T17:52:52.458Z,27.56
2018-07-26T17:55:21.550Z,27.16
2018-07-26T17:57:50.487Z,27.83
2018-07-26T18:00:19.351Z,28.78
2018-07-26T18:02:48.377Z,28.30
2018-07-26T18:05:17.352Z,28.40
2018-07-26T18:07:47.007Z,28.70
2018-07-26T18:10:15.819Z,28.26
2018-07-26T18:12:44.810Z,28.62
2018-07-26T18:15:13.705Z,28.21
2018-07-26T18:17:42.582Z,28.75
2018-07-26T18:20:11.427Z,29.04
2018-07-26T18:22:40.302Z,28.99
2018-07-26T18:25:09.332Z,29.44
2018-07-26T18:27:38.358Z,29.82
2018-07-26T18:30:08.613Z,30.18
2018-07-26T18:32:37.441Z,29.97
2018-07-26T18:35:06.676Z,30.62
2018-07-26T18:37:35.623Z,30.79
2018-07-26T18:40:05.010Z,30.69
2018-07-26T18:42:33.914Z,31.39
2018-07-26T18:45:02.786Z,31.71
2018-07-26T18:47:32.025Z,31.97
2018-07-26T18:50:00.871Z,32.08
2018-07-26T18:52:30.262Z,32.17
2018-07-26T18:54:58.927Z,32.46
2018-07-26T18:57:27.766Z,32.66
2018-07-26T18:59:56.761Z,33.15
2018-07-26T19:02:25.595Z,33.23
2018-07-26T19:04:54.569Z,33.37
2018-07-26T19:07:24.991Z,33.51
2018-07-26T19:09:54.043Z,33.67
2018-07-26T19:12:23.067Z,33.84
2018-07-26T19:14:52.065Z,33.89
2018-07-26T19:17:20.922Z,33.99
2018-07-26T19:19:49.766Z,34.23
2018-07-26T19:22:19.203Z,34.48
2018-07-26T19:24:48.157Z,34.66
2018-07-26T19:27:16.882Z,34.84
2018-07-26T19:29:45.660Z,35.19
2018-07-26T19:32:14.687Z,34.98
2018-07-26T19:34:43.487Z,35.85
2018-07-26T19:37:12.369Z,36.98
2018-07-26T19:39:41.184Z,37.00
2018-07-26T19:42:10.193Z,36.79
2018-07-26T19:44:38.897Z,36.58
2018-07-26T19:47:07.895Z,36.61
2018-07-26T19:49:37.119Z,36.56
2018-07-26T19:52:06.104Z,37.09
2018-07-26T19:54:35.044Z,36.90
2018-07-26T19:57:03.785Z,36.64
2018-07-26T19:59:32.614Z,37.06
2018-07-26T20:02:01.660Z,36.81
2018-07-26T20:04:30.623Z,36.56
2018-07-26T20:06:59.436Z,36.78
2018-07-26T20:09:28.372Z,36.64
2018-07-26T20:11:57.315Z,36.75
2018-07-26T20:14:26.049Z,37.03
2018-07-26T20:16:54.888Z,36.37
2018-07-26T20:19:23.886Z,37.12
2018-07-26T20:21:52.913Z,36.91
2018-07-26T20:24:21.835Z,36.89
2018-07-26T20:26:50.661Z,37.22
2018-07-26T20:29:19.485Z,37.01
2018-07-26T20:31:48.379Z,37.21
2018-07-26T20:34:17.294Z,36.95
2018-07-26T20:36:46.118Z,37.10
2018-07-26T20:39:15.547Z,37.03
2018-07-26T20:41:44.276Z,37.65
2018-07-26T20:44:13.375Z,37.57
2018-07-26T20:46:42.469Z,37.72
2018-07-26T20:49:11.194Z,37.40
2018-07-26T20:51:40.087Z,37.36
2018-07-26T20:54:09.169Z,37.69
2018-07-26T20:56:37.950Z,37.75
2018-07-26T20:59:06.798Z,37.61
2018-07-26T21:01:35.561Z,37.82
2018-07-26T21:04:04.804Z,37.71
2018-07-26T21:06:33.489Z,37.94
2018-07-26T21:09:02.349Z,37.96
2018-07-26T21:11:31.264Z,38.57
2018-07-26T21:14:00.294Z,38.46
2018-07-26T21:16:29.586Z,38.56
2018-07-26T21:18:58.420Z,38.48
2018-07-26T21:21:27.144Z,38.75
2018-07-26T21:23:56.437Z,38.95
2018-07-26T21:26:25.293Z,38.97
2018-07-26T21:28:54.153Z,38.97
2018-07-26T21:31:23.166Z,39.00
2018-07-26T21:33:52.181Z,39.15
2018-07-26T21:36:21.394Z,39.02
2018-07-26T21:38:50.456Z,39.58
2018-07-26T21:41:19.375Z,39.43
2018-07-26T21:43:48.463Z,39.72
2018-07-26T21:46:17.595Z,39.72
2018-07-26T21:48:46.700Z,39.71
2018-07-26T21:51:15.487Z,39.63
2018-07-26T21:53:44.263Z,40.16
2018-07-26T21:56:13.275Z,40.14
2018-07-26T21:58:42.147Z,40.29
2018-07-26T22:01:11.288Z,40.03
2018-07-26T22:03:40.212Z,40.19
2018-07-26T22:06:09.016Z,40.27
2018-07-26T22:08:37.823Z,40.33
2018-07-26T22:11:06.680Z,40.47
2018-07-26T22:13:35.511Z,40.99
2018-07-26T22:16:04.644Z,41.19
2018-07-26T22:18:33.522Z,41.21
2018-07-26T22:21:02.290Z,41.32
2018-07-26T22:23:31.372Z,41.54
2018-07-26T22:26:00.166Z,41.21
2018-07-26T22:28:28.886Z,41.69
2018-07-26T22:30:57.748Z,41.76
2018-07-26T22:33:26.499Z,41.89
2018-07-26T22:35:55.345Z,41.84
2018-07-26T22:38:24.139Z,41.75
2018-07-26T22:40:52.958Z,42.01
2018-07-26T22:43:22.259Z,42.26
2018-07-26T22:45:51.456Z,42.35
2018-07-26T22:48:20.300Z,42.88
2018-07-26T22:50:49.306Z,43.13
2018-07-26T22:53:18.204Z,43.55
2018-07-26T22:55:47.497Z,43.82
2018-07-26T22:58:16.237Z,43.78
2018-07-26T23:00:45.142Z,44.26
2018-07-26T23:03:14.030Z,44.36
2018-07-26T23:05:42.852Z,44.47
2018-07-26T23:08:12.115Z,45.12
2018-07-26T23:10:40.797Z,45.29
2018-07-26T23:13:09.761Z,45.65
2018-07-26T23:15:38.594Z,45.94
2018-07-26T23:18:07.460Z,46.00
2018-07-26T23:20:36.269Z,46.22
2018-07-26T23:23:05.027Z,46.50
2018-07-26T23:25:33.841Z,46.74
2018-07-26T23:28:02.646Z,47.10
2018-07-26T23:30:31.541Z,47.24
2018-07-26T23:33:00.398Z,47.29
2018-07-26T23:35:29.319Z,47.67
2018-07-26T23:37:58.354Z,47.87
2018-07-26T23:40:27.215Z,47.80
2018-07-26T23:42:55.917Z,47.96
2018-07-26T23:45:24.645Z,47.84
2018-07-26T23:47:53.359Z,48.00
2018-07-26T23:50:22.305Z,48.21
2018-07-26T23:52:51.254Z,48.24
2018-07-26T23:55:19.984Z,48.56
2018-07-26T23:57:48.741Z,48.57
